Time;durP1;ratioP1;P1;durP2;ratioP2;P2;SDS_P1;SDS_P2;PMS_P1;PMS_P2;Temp;Humidity;BMP_temperature;BMP_pressure;BME280_temperature;BME280_humidity;BME280_pressure;Samples;Min_cycle;Max_cycle;Signal;HPM_P1;HPM_P2
2024/03/11 00:00:09;;;;;;;;;;;7.70;99.90;;;;;;5022815;28;19998;-75
2024/03/11 00:02:35;;;;;;;;;;;7.60;99.90;;;;;;5018690;28;19986;-75
2024/03/11 00:05:01;;;;;;;;;;;7.50;99.90;;;;;;5019953;28;20040;-75
2024/03/11 00:07:33;;;;;;;;;;;7.60;99.90;;;;;;5020019;28;20507;-76
2024/03/11 00:10:00;;;;;;;;;;;7.40;99.90;;;;;;5021741;28;19991;-76
2024/03/11 00:12:29;;;;;;;;;;;7.50;99.90;;;;;;5018979;28;19997;-75
2024/03/11 00:14:55;;;;;;;;;;;7.50;99.90;;;;;;5021479;28;20598;-75
2024/03/11 00:17:21;;;;;;;;;;;7.40;99.90;;;;;;5020651;28;20010;-75
2024/03/11 00:19:47;;;;;;;;;;;7.20;99.90;;;;;;5019877;28;19990;-75
2024/03/11 00:22:13;;;;;;;;;;;7.20;99.90;;;;;;5020626;28;19998;-76
2024/03/11 00:24:38;;;;;;;;;;;7.20;99.90;;;;;;5018598;28;19994;-76
2024/03/11 00:27:07;;;;;;;;;;;7.40;99.90;;;;;;5018340;28;20005;-75
2024/03/11 00:29:34;;;;;;;;;;;7.50;99.90;;;;;;5019404;28;20010;-76
2024/03/11 00:32:02;;;;;;;;;;;7.50;99.90;;;;;;5018621;28;19994;-76
2024/03/11 00:34:28;;;;;;;;;;;7.60;99.90;;;;;;5015080;28;19996;-76
2024/03/11 00:36:55;;;;;;;;;;;7.60;99.90;;;;;;5019020;28;20062;-76
2024/03/11 00:39:20;;;;;;;;;;;7.50;99.90;;;;;;5021321;28;19991;-76
2024/03/11 00:41:46;;;;;;;;;;;7.50;99.90;;;;;;5026141;28;19990;-77
2024/03/11 00:44:11;;;;;;;;;;;7.50;99.90;;;;;;5027346;28;19996;-76
2024/03/11 00:46:38;;;;;;;;;;;7.50;99.90;;;;;;5018814;28;20002;-75
2024/03/11 00:49:06;;;;;;;;;;;7.50;99.90;;;;;;5017442;28;19994;-75
2024/03/11 00:51:31;;;;;;;;;;;7.50;99.90;;;;;;5020337;28;20009;-76
2024/03/11 00:53:57;;;;;;;;;;;7.50;99.90;;;;;;5017988;28;20296;-75
2024/03/11 00:56:22;;;;;;;;;;;7.40;99.90;;;;;;5023899;28;20022;-76
2024/03/11 00:58:48;;;;;;;;;;;7.50;99.90;;;;;;5018125;28;19991;-76
2024/03/11 01:01:14;;;;;;;;;;;7.40;99.90;;;;;;5018388;28;20085;-76
2024/03/11 01:03:40;;;;;;;;;;;7.50;99.90;;;;;;5019238;28;19994;-76
2024/03/11 01:06:07;;;;;;;;;;;7.40;99.90;;;;;;5019534;28;20087;-76
2024/03/11 01:08:33;;;;;;;;;;;7.50;99.90;;;;;;5007632;28;19994;-76
2024/03/11 01:10:59;;;;;;;;;;;7.50;99.90;;;;;;5006817;28;19991;-76
2024/03/11 01:13:24;;;;;;;;;;;7.60;99.90;;;;;;5006098;28;19990;-76
2024/03/11 01:15:50;;;;;;;;;;;7.50;99.90;;;;;;5003840;28;20017;-76
2024/03/11 01:18:16;;;;;;;;;;;7.60;99.90;;;;;;5006253;28;20037;-76
2024/03/11 01:20:41;;;;;;;;;;;7.60;99.90;;;;;;5009841;28;19998;-76
2024/03/11 01:23:08;;;;;;;;;;;7.60;99.90;;;;;;5004372;28;20001;-76
2024/03/11 01:25:33;;;;;;;;;;;7.60;99.90;;;;;;5004982;28;20001;-76
2024/03/11 01:27:59;;;;;;;;;;;7.70;99.90;;;;;;5003262;28;20218;-75
2024/03/11 01:30:25;;;;;;;;;;;7.70;99.90;;;;;;5003689;28;19993;-75
2024/03/11 01:32:51;;;;;;;;;;;7.70;99.90;;;;;;5005102;28;19986;-75
2024/03/11 01:35:17;;;;;;;;;;;7.60;99.90;;;;;;5004371;28;19997;-76
2024/03/11 01:37:43;;;;;;;;;;;7.70;99.90;;;;;;5007354;28;20077;-76
2024/03/11 01:40:13;;;;;;;;;;;7.80;99.90;;;;;;5005291;28;20512;-76
2024/03/11 01:42:42;;;;;;;;;;;7.70;99.90;;;;;;5004109;28;20546;-75
2024/03/11 01:45:08;;;;;;;;;;;7.60;99.90;;;;;;5004656;28;20002;-76
2024/03/11 01:47:34;;;;;;;;;;;7.50;99.90;;;;;;5004907;28;20023;-76
2024/03/11 01:49:59;;;;;;;;;;;7.60;99.90;;;;;;5011120;28;19994;-75
2024/03/11 01:52:31;;;;;;;;;;;7.50;99.90;;;;;;5004183;28;19997;-75
2024/03/11 01:54:58;;;;;;;;;;;7.40;99.90;;;;;;5003665;28;20012;-76
2024/03/11 01:57:24;;;;;;;;;;;7.50;99.90;;;;;;5006020;28;20029;-75
2024/03/11 01:59:51;;;;;;;;;;;7.60;99.90;;;;;;5008785;28;19994;-75
2024/03/11 02:02:20;;;;;;;;;;;7.50;99.90;;;;;;5001910;28;19998;-76
2024/03/11 02:04:46;;;;;;;;;;;7.40;99.90;;;;;;5004557;28;20014;-75
2024/03/11 02:07:14;;;;;;;;;;;7.50;99.90;;;;;;5005514;28;20365;-76
2024/03/11 02:09:42;;;;;;;;;;;7.40;99.90;;;;;;5004954;28;20037;-76
2024/03/11 02:12:12;;;;;;;;;;;7.30;99.90;;;;;;5004537;28;20045;-76
2024/03/11 02:14:38;;;;;;;;;;;7.20;99.90;;;;;;5004654;28;20001;-76
2024/03/11 02:17:06;;;;;;;;;;;7.20;99.90;;;;;;5006858;28;20533;-75
2024/03/11 02:19:35;;;;;;;;;;;7.30;99.90;;;;;;5003375;28;20017;-76
2024/03/11 02:22:02;;;;;;;;;;;7.30;99.90;;;;;;5003520;28;19994;-75
2024/03/11 02:24:28;;;;;;;;;;;7.30;99.90;;;;;;5004170;28;19995;-76
2024/03/11 02:26:53;;;;;;;;;;;7.20;99.90;;;;;;5003508;28;20656;-76
2024/03/11 02:29:19;;;;;;;;;;;7.20;99.90;;;;;;5003840;28;20501;-76
2024/03/11 02:31:45;;;;;;;;;;;7.10;99.90;;;;;;5003726;28;20458;-76
2024/03/11 02:34:14;;;;;;;;;;;7.10;99.90;;;;;;5003311;28;20444;-75
2024/03/11 02:36:44;;;;;;;;;;;7.10;99.90;;;;;;5000983;28;20500;-75
2024/03/11 02:39:10;;;;;;;;;;;7.10;99.90;;;;;;5004588;28;19990;-76
2024/03/11 02:41:36;;;;;;;;;;;7.10;99.90;;;;;;5007364;28;20000;-75
2024/03/11 02:44:03;;;;;;;;;;;7.10;99.90;;;;;;5003493;28;19991;-75
2024/03/11 02:46:32;;;;;;;;;;;7.00;99.90;;;;;;5005485;28;19994;-77
2024/03/11 02:48:57;;;;;;;;;;;7.00;99.90;;;;;;5007324;28;19990;-76
2024/03/11 02:51:23;;;;;;;;;;;7.10;99.90;;;;;;5007560;28;20348;-76
2024/03/11 02:53:50;;;;;;;;;;;7.00;99.90;;;;;;5003443;28;19990;-75
2024/03/11 02:56:16;;;;;;;;;;;6.90;99.90;;;;;;5011523;28;20023;-76
2024/03/11 02:58:42;;;;;;;;;;;7.00;99.90;;;;;;5006146;28;20483;-75
2024/03/11 03:01:08;;;;;;;;;;;6.90;99.90;;;;;;5000089;28;19995;-76
2024/03/11 03:03:34;;;;;;;;;;;6.90;99.90;;;;;;5003771;28;20085;-76
2024/03/11 03:05:59;;;;;;;;;;;6.80;99.90;;;;;;5003066;28;20049;-75
2024/03/11 03:08:25;;;;;;;;;;;6.80;99.90;;;;;;5004070;28;19990;-77
2024/03/11 03:10:51;;;;;;;;;;;6.90;99.90;;;;;;5003542;28;20052;-76
2024/03/11 03:13:17;;;;;;;;;;;6.80;99.90;;;;;;5003325;28;19995;-75
2024/03/11 03:15:42;;;;;;;;;;;6.70;99.90;;;;;;5005858;28;20057;-76
2024/03/11 03:18:08;;;;;;;;;;;6.60;99.90;;;;;;5005990;28;20045;-76
2024/03/11 03:20:34;;;;;;;;;;;6.50;99.90;;;;;;5002904;28;20001;-75
2024/03/11 03:22:59;;;;;;;;;;;6.40;99.90;;;;;;5003296;28;20465;-76
2024/03/11 03:25:32;;;;;;;;;;;6.50;99.90;;;;;;5003077;28;20514;-76
2024/03/11 03:28:02;;;;;;;;;;;6.50;99.90;;;;;;5003020;28;20349;-75
2024/03/11 03:30:28;;;;;;;;;;;6.50;99.90;;;;;;5002510;28;20002;-76
2024/03/11 03:32:53;;;;;;;;;;;6.50;99.90;;;;;;5003220;28;19991;-75
2024/03/11 03:35:19;;;;;;;;;;;6.50;99.90;;;;;;5002383;28;19991;-75
2024/03/11 03:37:45;;;;;;;;;;;6.60;99.90;;;;;;5005779;28;20002;-75
2024/03/11 03:40:15;;;;;;;;;;;6.60;99.90;;;;;;5002699;28;20544;-75
2024/03/11 03:42:42;;;;;;;;;;;6.60;99.90;;;;;;5003159;28;20488;-75
2024/03/11 03:45:09;;;;;;;;;;;6.60;99.90;;;;;;5000879;28;20001;-76
2024/03/11 03:47:35;;;;;;;;;;;6.60;99.90;;;;;;5003730;28;19990;-75
2024/03/11 03:50:02;;;;;;;;;;;6.60;99.90;;;;;;5007751;28;20469;-75
2024/03/11 03:52:29;;;;;;;;;;;6.60;99.90;;;;;;5002692;28;20030;-75
2024/03/11 03:54:54;;;;;;;;;;;6.70;99.90;;;;;;5002923;28;20489;-75
2024/03/11 03:57:21;;;;;;;;;;;6.70;99.90;;;;;;5004508;28;20124;-75
2024/03/11 03:59:48;;;;;;;;;;;6.80;99.90;;;;;;5007204;28;20044;-76
2024/03/11 04:02:14;;;;;;;;;;;6.70;99.90;;;;;;5003214;28;20072;-76
2024/03/11 04:04:40;;;;;;;;;;;6.70;99.90;;;;;;5004185;28;20001;-75
2024/03/11 04:07:06;;;;;;;;;;;6.80;99.90;;;;;;5005868;28;19990;-75
2024/03/11 04:09:31;;;;;;;;;;;6.80;99.90;;;;;;5003183;28;20002;-76
2024/03/11 04:11:57;;;;;;;;;;;6.70;99.90;;;;;;5005648;28;20609;-77
2024/03/11 04:14:22;;;;;;;;;;;6.60;99.90;;;;;;5006110;28;20081;-77
2024/03/11 04:16:48;;;;;;;;;;;6.70;99.90;;;;;;5006846;28;20456;-77
2024/03/11 04:19:13;;;;;;;;;;;6.70;99.90;;;;;;5003403;28;20033;-77
2024/03/11 04:21:39;;;;;;;;;;;6.70;99.90;;;;;;5002834;28;20002;-76
2024/03/11 04:24:05;;;;;;;;;;;6.70;99.90;;;;;;5002906;28;20112;-75
2024/03/11 04:26:31;;;;;;;;;;;6.70;99.90;;;;;;5002471;28;19994;-75
2024/03/11 04:28:57;;;;;;;;;;;6.50;99.90;;;;;;5001950;28;19990;-76
2024/03/11 04:31:24;;;;;;;;;;;6.50;99.90;;;;;;5004596;28;19991;-76
2024/03/11 04:33:50;;;;;;;;;;;6.60;99.90;;;;;;5002362;28;19990;-76
2024/03/11 04:36:16;;;;;;;;;;;6.50;99.90;;;;;;5002552;28;20006;-76
2024/03/11 04:38:42;;;;;;;;;;;6.50;99.90;;;;;;5008956;28;19990;-76
2024/03/11 04:41:07;;;;;;;;;;;6.50;99.90;;;;;;5009218;28;19990;-76
2024/03/11 04:43:36;;;;;;;;;;;6.50;99.90;;;;;;5004040;28;19994;-75
2024/03/11 04:46:02;;;;;;;;;;;6.60;99.90;;;;;;5010590;28;20828;-75
2024/03/11 04:48:28;;;;;;;;;;;6.50;99.90;;;;;;5012236;28;19999;-75
2024/03/11 04:50:53;;;;;;;;;;;6.50;99.90;;;;;;5038141;28;20089;-76
2024/03/11 04:53:19;;;;;;;;;;;6.70;99.90;;;;;;5009901;28;19990;-75
2024/03/11 04:55:44;;;;;;;;;;;6.60;99.90;;;;;;5005622;28;20072;-76
2024/03/11 04:58:10;;;;;;;;;;;6.70;99.90;;;;;;5009380;28;20012;-76
2024/03/11 05:00:35;;;;;;;;;;;6.70;99.90;;;;;;5006068;28;19998;-75
2024/03/11 05:03:02;;;;;;;;;;;6.70;99.90;;;;;;5005330;28;20014;-75
2024/03/11 05:05:31;;;;;;;;;;;6.70;99.90;;;;;;5005562;28;20645;-76
2024/03/11 05:07:57;;;;;;;;;;;6.70;99.90;;;;;;5004483;28;20052;-76
2024/03/11 05:10:23;;;;;;;;;;;6.70;99.90;;;;;;5005245;28;20447;-76
2024/03/11 05:12:49;;;;;;;;;;;6.70;99.90;;;;;;5005117;28;20336;-76
2024/03/11 05:15:17;;;;;;;;;;;6.80;99.90;;;;;;5006562;28;19997;-75
2024/03/11 05:17:42;;;;;;;;;;;6.70;99.90;;;;;;5005917;28;20635;-74
2024/03/11 05:20:11;;;;;;;;;;;6.80;99.90;;;;;;5004139;28;20040;-75
2024/03/11 05:22:37;;;;;;;;;;;6.80;99.90;;;;;;5004891;28;20077;-74
2024/03/11 05:25:06;;;;;;;;;;;6.80;99.90;;;;;;5004961;28;20095;-75
2024/03/11 05:27:32;;;;;;;;;;;6.80;99.90;;;;;;5002792;28;20005;-75
2024/03/11 05:29:58;;;;;;;;;;;6.80;99.90;;;;;;5003505;28;19990;-75
2024/03/11 05:32:23;;;;;;;;;;;6.80;99.90;;;;;;5004942;28;19997;-75
2024/03/11 05:34:49;;;;;;;;;;;6.90;99.90;;;;;;5004288;28;20068;-74
2024/03/11 05:37:15;;;;;;;;;;;6.80;99.90;;;;;;5004567;28;20021;-75
2024/03/11 05:39:40;;;;;;;;;;;6.80;99.90;;;;;;5008068;28;20077;-74
2024/03/11 05:42:08;;;;;;;;;;;6.80;99.90;;;;;;5003430;28;20346;-74
2024/03/11 05:44:34;;;;;;;;;;;6.80;99.90;;;;;;5006373;28;19998;-74
2024/03/11 05:46:59;;;;;;;;;;;6.80;99.90;;;;;;5008229;28;19994;-74
2024/03/11 05:49:28;;;;;;;;;;;6.90;99.90;;;;;;5010694;28;20596;-73
2024/03/11 05:51:57;;;;;;;;;;;6.80;99.90;;;;;;5004670;28;19997;-73
2024/03/11 05:54:24;;;;;;;;;;;6.90;99.90;;;;;;5012437;28;20223;-74
2024/03/11 05:56:59;;;;;;;;;;;6.90;99.90;;;;;;5003955;28;20026;-74
2024/03/11 05:59:27;;;;;;;;;;;6.90;99.90;;;;;;5014280;28;19986;-74
2024/03/11 06:01:55;;;;;;;;;;;6.80;99.90;;;;;;5004771;28;19994;-73
2024/03/11 06:04:20;;;;;;;;;;;6.90;99.90;;;;;;5018549;28;19998;-73
2024/03/11 06:06:47;;;;;;;;;;;6.90;99.90;;;;;;5005038;28;20465;-74
2024/03/11 06:09:14;;;;;;;;;;;6.90;99.90;;;;;;5007458;28;20549;-74
2024/03/11 06:11:42;;;;;;;;;;;6.90;99.90;;;;;;5005096;28;20377;-73
2024/03/11 06:14:12;;;;;;;;;;;6.80;99.90;;;;;;5011150;28;19990;-74
2024/03/11 06:16:38;;;;;;;;;;;6.80;99.90;;;;;;5006526;28;20018;-74
2024/03/11 06:19:06;;;;;;;;;;;6.90;99.90;;;;;;5004314;28;19990;-76
2024/03/11 06:21:31;;;;;;;;;;;6.80;99.90;;;;;;5004805;28;20533;-74
2024/03/11 06:23:59;;;;;;;;;;;6.80;99.90;;;;;;5005911;28;19997;-74
2024/03/11 06:26:26;;;;;;;;;;;6.90;99.90;;;;;;5009293;28;20013;-75
2024/03/11 06:28:52;;;;;;;;;;;6.90;99.90;;;;;;5004206;28;20002;-74
2024/03/11 06:31:17;;;;;;;;;;;6.90;99.90;;;;;;5006445;28;19994;-76
2024/03/11 06:33:43;;;;;;;;;;;6.90;99.90;;;;;;5003722;28;20049;-75
2024/03/11 06:36:09;;;;;;;;;;;6.90;99.90;;;;;;5004687;28;20212;-74
2024/03/11 06:38:34;;;;;;;;;;;6.80;99.90;;;;;;5006038;28;20001;-74
2024/03/11 06:41:00;;;;;;;;;;;6.80;99.90;;;;;;5006922;28;19994;-73
2024/03/11 06:43:26;;;;;;;;;;;6.80;99.90;;;;;;5012245;28;20098;-74
2024/03/11 06:45:51;;;;;;;;;;;6.80;99.90;;;;;;5002038;28;20061;-73
2024/03/11 06:48:17;;;;;;;;;;;6.90;99.90;;;;;;5003367;28;19994;-74
2024/03/11 06:50:42;;;;;;;;;;;6.80;99.90;;;;;;5009755;28;19991;-75
2024/03/11 06:53:08;;;;;;;;;;;6.80;99.90;;;;;;5009318;28;20553;-76
2024/03/11 06:55:34;;;;;;;;;;;6.70;99.90;;;;;;5006243;28;20036;-74
2024/03/11 06:58:00;;;;;;;;;;;6.80;99.90;;;;;;5009664;28;19986;-74
2024/03/11 07:00:27;;;;;;;;;;;6.90;99.90;;;;;;5003435;28;19991;-76
2024/03/11 07:02:53;;;;;;;;;;;6.90;99.90;;;;;;5006562;28;20022;-78
2024/03/11 07:05:18;;;;;;;;;;;6.80;99.90;;;;;;5004371;28;19990;-75
2024/03/11 07:07:45;;;;;;;;;;;6.80;99.90;;;;;;5003913;28;20835;-76
2024/03/11 07:10:12;;;;;;;;;;;6.80;99.90;;;;;;5003775;28;20006;-76
2024/03/11 07:12:42;;;;;;;;;;;6.90;99.90;;;;;;5001271;28;19994;-77
2024/03/11 07:15:09;;;;;;;;;;;6.90;99.90;;;;;;5001923;28;20117;-77
2024/03/11 07:17:34;;;;;;;;;;;6.90;99.90;;;;;;5006339;28;20010;-75
2024/03/11 07:20:00;;;;;;;;;;;7.00;99.90;;;;;;5008643;28;20051;-75
2024/03/11 07:22:25;;;;;;;;;;;7.00;99.90;;;;;;5000822;28;20021;-74
2024/03/11 07:24:51;;;;;;;;;;;6.90;99.90;;;;;;4992584;28;20078;-74
2024/03/11 07:27:17;;;;;;;;;;;6.90;99.90;;;;;;5004526;28;20887;-74
2024/03/11 07:29:46;;;;;;;;;;;6.90;99.90;;;;;;5003079;28;20133;-75
2024/03/11 07:32:11;;;;;;;;;;;6.90;99.90;;;;;;5002095;28;20394;-74
2024/03/11 07:34:40;;;;;;;;;;;6.90;99.90;;;;;;5001476;28;19997;-75
2024/03/11 07:37:06;;;;;;;;;;;6.90;99.90;;;;;;4999462;28;20013;-74
2024/03/11 07:39:31;;;;;;;;;;;7.00;99.90;;;;;;5000606;28;20360;-74
2024/03/11 07:41:57;;;;;;;;;;;7.00;99.90;;;;;;5007498;28;19997;-74
2024/03/11 07:44:24;;;;;;;;;;;7.10;99.90;;;;;;5009954;28;19986;-76
2024/03/11 07:46:50;;;;;;;;;;;7.10;99.90;;;;;;5009549;28;20001;-74
2024/03/11 07:49:16;;;;;;;;;;;7.10;99.90;;;;;;5014424;28;20678;-74
2024/03/11 07:51:41;;;;;;;;;;;7.20;99.90;;;;;;4998260;28;20056;-74
2024/03/11 07:54:09;;;;;;;;;;;7.10;99.90;;;;;;5001072;28;19990;-74
2024/03/11 07:56:35;;;;;;;;;;;7.20;99.90;;;;;;4996548;28;20055;-74
2024/03/11 07:59:03;;;;;;;;;;;7.20;99.90;;;;;;5002560;28;19982;-74
2024/03/11 08:01:29;;;;;;;;;;;7.40;99.90;;;;;;4996847;28;20097;-74
2024/03/11 08:03:54;;;;;;;;;;;7.40;99.90;;;;;;5008608;28;19986;-75
2024/03/11 08:06:20;;;;;;;;;;;7.50;99.90;;;;;;5002049;28;20002;-75
2024/03/11 08:08:45;;;;;;;;;;;7.50;99.90;;;;;;5002215;28;19986;-74
2024/03/11 08:11:11;;;;;;;;;;;7.50;99.90;;;;;;5000938;28;19994;-74
2024/03/11 08:13:37;;;;;;;;;;;7.60;99.90;;;;;;4998259;28;19991;-74
2024/03/11 08:16:03;;;;;;;;;;;7.60;99.90;;;;;;4997697;28;20011;-75
2024/03/11 08:18:29;;;;;;;;;;;7.70;99.90;;;;;;5000619;28;20816;-75
2024/03/11 08:20:55;;;;;;;;;;;7.60;99.90;;;;;;5006260;28;19998;-75
2024/03/11 08:23:21;;;;;;;;;;;7.50;99.90;;;;;;4996280;28;19983;-76
2024/03/11 08:25:48;;;;;;;;;;;7.60;99.90;;;;;;5000776;28;20450;-74
2024/03/11 08:28:14;;;;;;;;;;;7.60;99.90;;;;;;5000328;28;20668;-74
2024/03/11 08:30:41;;;;;;;;;;;7.60;99.90;;;;;;5000554;28;20740;-75
2024/03/11 08:33:06;;;;;;;;;;;7.40;99.90;;;;;;4996282;28;19987;-74
2024/03/11 08:35:32;;;;;;;;;;;7.30;99.90;;;;;;5000413;28;20002;-75
2024/03/11 08:37:58;;;;;;;;;;;7.30;99.90;;;;;;5006644;28;19990;-76
2024/03/11 08:40:25;;;;;;;;;;;7.20;99.90;;;;;;5006170;28;20369;-74
2024/03/11 08:42:51;;;;;;;;;;;7.30;99.90;;;;;;5006057;28;20425;-74
2024/03/11 08:45:22;;;;;;;;;;;7.40;99.90;;;;;;5008193;28;20073;-74
2024/03/11 08:47:48;;;;;;;;;;;7.30;99.90;;;;;;5004102;28;20002;-74
2024/03/11 08:50:16;;;;;;;;;;;7.20;99.90;;;;;;5003821;28;20077;-75
2024/03/11 08:52:45;;;;;;;;;;;7.20;99.90;;;;;;5004522;28;19994;-74
2024/03/11 08:55:15;;;;;;;;;;;7.10;99.90;;;;;;5009318;28;19995;-74
2024/03/11 08:57:41;;;;;;;;;;;7.20;99.90;;;;;;5004852;28;20107;-75
2024/03/11 09:00:11;;;;;;;;;;;7.30;99.90;;;;;;5004891;28;19997;-75
2024/03/11 09:02:37;;;;;;;;;;;7.40;99.90;;;;;;5005987;28;20148;-74
2024/03/11 09:05:08;;;;;;;;;;;7.30;99.90;;;;;;5008498;28;19997;-76
2024/03/11 09:07:35;;;;;;;;;;;7.20;99.90;;;;;;5008223;28;19985;-74
2024/03/11 09:10:03;;;;;;;;;;;7.40;99.90;;;;;;5004831;28;20496;-74
2024/03/11 09:12:28;;;;;;;;;;;7.50;99.90;;;;;;5005638;28;20492;-75
2024/03/11 09:14:55;;;;;;;;;;;7.50;99.90;;;;;;5007228;28;19990;-74
2024/03/11 09:17:21;;;;;;;;;;;7.40;99.90;;;;;;5007151;28;20011;-74
2024/03/11 09:19:47;;;;;;;;;;;7.30;99.90;;;;;;5006287;28;20052;-74
2024/03/11 09:22:15;;;;;;;;;;;7.40;99.90;;;;;;5007613;28;19990;-75
2024/03/11 09:24:41;;;;;;;;;;;7.40;99.90;;;;;;5006600;28;20090;-75
2024/03/11 09:27:07;;;;;;;;;;;7.60;99.90;;;;;;5007284;28;20867;-75
2024/03/11 09:29:34;;;;;;;;;;;7.50;99.90;;;;;;5011327;28;19997;-75
2024/03/11 09:32:01;;;;;;;;;;;7.30;99.90;;;;;;5006410;28;20036;-75
2024/03/11 09:34:29;;;;;;;;;;;7.30;99.90;;;;;;5005550;28;19990;-74
2024/03/11 09:36:55;;;;;;;;;;;7.30;99.90;;;;;;5008330;28;20011;-74
2024/03/11 09:39:21;;;;;;;;;;;7.20;99.90;;;;;;5006851;28;19990;-74
2024/03/11 09:41:50;;;;;;;;;;;7.10;99.90;;;;;;5009471;28;19994;-74
2024/03/11 09:44:20;;;;;;;;;;;7.30;99.90;;;;;;5008399;28;20103;-74
2024/03/11 09:46:46;;;;;;;;;;;7.30;99.90;;;;;;5004656;28;20748;-74
2024/03/11 09:49:15;;;;;;;;;;;7.20;99.90;;;;;;5011022;28;20717;-75
2024/03/11 09:51:47;;;;;;;;;;;7.20;99.90;;;;;;5003685;28;19997;-74
2024/03/11 09:54:13;;;;;;;;;;;7.40;99.90;;;;;;5004936;28;20496;-75
2024/03/11 09:56:47;;;;;;;;;;;8.00;99.90;;;;;;5004318;28;20026;-75
2024/03/11 09:59:19;;;;;;;;;;;9.20;99.90;;;;;;5006859;28;20130;-76
2024/03/11 10:01:49;;;;;;;;;;;9.00;99.90;;;;;;5005565;28;19990;-75
2024/03/11 10:04:18;;;;;;;;;;;8.90;99.90;;;;;;5006762;28;20041;-74
2024/03/11 10:06:43;;;;;;;;;;;8.80;99.90;;;;;;5011181;28;20346;-74
2024/03/11 10:09:18;;;;;;;;;;;9.60;99.90;;;;;;5007233;28;19997;-75
2024/03/11 10:11:59;;;;;;;;;;;10.10;99.90;;;;;;5004406;28;19990;-75
2024/03/11 10:14:25;;;;;;;;;;;9.60;99.90;;;;;;5004679;28;20644;-75
2024/03/11 10:16:50;;;;;;;;;;;9.30;99.90;;;;;;4997672;28;20005;-76
2024/03/11 10:19:16;;;;;;;;;;;9.10;99.90;;;;;;5004863;28;19991;-77
2024/03/11 10:21:42;;;;;;;;;;;8.70;99.90;;;;;;5004357;28;19995;-77
2024/03/11 10:24:14;;;;;;;;;;;8.60;99.90;;;;;;5007734;28;19991;-76
2024/03/11 10:26:43;;;;;;;;;;;8.50;99.90;;;;;;5007321;28;20025;-75
2024/03/11 10:29:11;;;;;;;;;;;8.40;99.90;;;;;;5004270;28;20434;-75
2024/03/11 10:31:45;;;;;;;;;;;8.40;99.90;;;;;;5006961;28;20117;-74
2024/03/11 10:34:13;;;;;;;;;;;8.50;99.90;;;;;;5004344;28;20087;-75
2024/03/11 10:36:40;;;;;;;;;;;8.60;99.90;;;;;;5000951;28;20057;-74
2024/03/11 10:39:25;;;;;;;;;;;8.80;99.90;;;;;;5004220;28;19986;-75
2024/03/11 10:41:52;;;;;;;;;;;8.90;99.90;;;;;;5003046;28;19997;-75
2024/03/11 10:44:23;;;;;;;;;;;8.70;99.90;;;;;;5007016;28;20038;-75
2024/03/11 10:46:52;;;;;;;;;;;8.70;99.90;;;;;;5004570;28;19994;-74
2024/03/11 10:49:18;;;;;;;;;;;8.70;99.90;;;;;;5006942;28;19990;-75
2024/03/11 10:51:49;;;;;;;;;;;8.70;99.90;;;;;;5003410;28;20038;-75
2024/03/11 10:54:20;;;;;;;;;;;8.70;99.90;;;;;;5008734;28;19990;-74
2024/03/11 10:56:46;;;;;;;;;;;8.90;99.90;;;;;;5010105;28;20026;-74
2024/03/11 10:59:15;;;;;;;;;;;9.20;99.90;;;;;;5005548;28;20001;-74
2024/03/11 11:01:44;;;;;;;;;;;9.10;99.90;;;;;;5004452;28;20013;-74
2024/03/11 11:04:19;;;;;;;;;;;9.40;99.90;;;;;;5003750;28;19998;-74
2024/03/11 11:06:46;;;;;;;;;;;9.30;99.90;;;;;;5010542;28;19996;-76
2024/03/11 11:09:12;;;;;;;;;;;9.30;99.90;;;;;;5004950;28;20001;-75
2024/03/11 11:11:42;;;;;;;;;;;9.30;99.90;;;;;;5004692;28;19987;-75
2024/03/11 11:14:11;;;;;;;;;;;9.50;99.90;;;;;;5002925;28;20025;-76
2024/03/11 11:16:43;;;;;;;;;;;9.70;99.90;;;;;;5005855;28;20016;-76
2024/03/11 11:19:10;;;;;;;;;;;10.00;99.90;;;;;;5003423;28;20373;-75
2024/03/11 11:21:36;;;;;;;;;;;10.60;99.90;;;;;;5003514;28;20009;-74
2024/03/11 11:24:21;;;;;;;;;;;10.20;99.90;;;;;;5005158;28;19994;-75
2024/03/11 11:26:46;;;;;;;;;;;10.20;99.90;;;;;;5003599;28;19991;-75
2024/03/11 11:29:12;;;;;;;;;;;10.10;99.90;;;;;;5003227;28;19994;-75
2024/03/11 11:31:38;;;;;;;;;;;9.90;99.90;;;;;;5002935;28;19997;-76
2024/03/11 11:34:06;;;;;;;;;;;9.80;99.90;;;;;;5003031;28;19994;-74
2024/03/11 11:36:32;;;;;;;;;;;9.50;99.90;;;;;;5005461;28;20100;-74
2024/03/11 11:38:58;;;;;;;;;;;9.90;99.90;;;;;;5002875;28;20479;-75
2024/03/11 11:41:34;;;;;;;;;;;10.00;99.90;;;;;;5005888;28;20784;-75
2024/03/11 11:44:00;;;;;;;;;;;10.00;99.90;;;;;;5008171;28;19990;-74
2024/03/11 11:46:42;;;;;;;;;;;9.80;99.90;;;;;;5004671;28;19998;-75
2024/03/11 11:49:16;;;;;;;;;;;10.00;99.90;;;;;;5005002;28;19990;-75
2024/03/11 11:51:43;;;;;;;;;;;9.50;99.90;;;;;;5002112;28;20008;-75
2024/03/11 11:54:19;;;;;;;;;;;9.40;99.90;;;;;;5008279;28;19989;-76
2024/03/11 11:56:45;;;;;;;;;;;9.40;99.90;;;;;;5002359;28;20067;-74
2024/03/11 11:59:12;;;;;;;;;;;10.00;99.90;;;;;;5008660;28;19998;-76
2024/03/11 12:01:50;;;;;;;;;;;10.20;99.90;;;;;;5003596;28;20099;-75
2024/03/11 12:04:16;;;;;;;;;;;10.50;99.90;;;;;;5004322;28;20393;-74
2024/03/11 12:06:42;;;;;;;;;;;10.50;99.90;;;;;;5009965;28;20002;-75
2024/03/11 12:09:15;;;;;;;;;;;10.40;99.90;;;;;;5003312;28;20619;-75
2024/03/11 12:11:49;;;;;;;;;;;10.60;99.90;;;;;;5002716;28;19994;-74
2024/03/11 12:14:15;;;;;;;;;;;10.60;99.90;;;;;;5003588;28;19991;-74
2024/03/11 12:16:42;;;;;;;;;;;10.80;99.90;;;;;;5004298;28;20014;-75
2024/03/11 12:19:09;;;;;;;;;;;10.40;99.90;;;;;;5005467;28;20001;-75
2024/03/11 12:21:38;;;;;;;;;;;9.90;99.90;;;;;;5002797;28;20473;-74
2024/03/11 12:24:09;;;;;;;;;;;9.70;99.90;;;;;;5004374;28;20625;-74
2024/03/11 12:26:35;;;;;;;;;;;10.20;99.90;;;;;;5006720;28;20092;-74
2024/03/11 12:29:08;;;;;;;;;;;10.10;99.90;;;;;;5002408;28;20154;-74
2024/03/11 12:31:34;;;;;;;;;;;10.00;99.90;;;;;;5005223;28;20366;-75
2024/03/11 12:34:00;;;;;;;;;;;10.20;99.90;;;;;;5004247;28;19991;-74
2024/03/11 12:36:29;;;;;;;;;;;10.20;99.90;;;;;;5008005;28;20016;-74
2024/03/11 12:38:55;;;;;;;;;;;10.50;99.90;;;;;;5002916;28;20069;-75
2024/03/11 12:41:42;;;;;;;;;;;10.50;99.90;;;;;;5002130;28;19995;-74
2024/03/11 12:44:19;;;;;;;;;;;10.90;99.90;;;;;;5000898;28;19994;-76
2024/03/11 12:46:45;;;;;;;;;;;10.80;99.90;;;;;;5011062;28;20029;-77
2024/03/11 12:49:11;;;;;;;;;;;10.20;99.90;;;;;;5005395;28;20040;-74
2024/03/11 12:51:38;;;;;;;;;;;9.00;99.90;;;;;;5006628;28;19998;-75
2024/03/11 12:54:19;;;;;;;;;;;8.60;99.90;;;;;;5002621;28;20064;-75
2024/03/11 12:57:04;;;;;;;;;;;8.70;99.90;;;;;;5000286;28;20037;-74
2024/03/11 12:59:31;;;;;;;;;;;8.70;99.90;;;;;;5002397;28;19990;-74
2024/03/11 13:02:18;;;;;;;;;;;8.40;99.90;;;;;;5002570;28;19998;-76
2024/03/11 13:04:46;;;;;;;;;;;8.50;99.90;;;;;;5003700;28;20001;-76
2024/03/11 13:07:12;;;;;;;;;;;9.20;99.90;;;;;;5008917;28;20088;-75
2024/03/11 13:09:40;;;;;;;;;;;9.50;99.90;;;;;;5006228;28;19991;-76
2024/03/11 13:12:11;;;;;;;;;;;10.10;99.90;;;;;;5005807;28;19986;-75
2024/03/11 13:14:37;;;;;;;;;;;10.60;99.90;;;;;;5006765;28;20021;-75
2024/03/11 13:17:04;;;;;;;;;;;10.80;99.90;;;;;;5007922;28;20432;-75
2024/03/11 13:19:31;;;;;;;;;;;11.20;99.90;;;;;;5005091;28;19994;-75
2024/03/11 13:21:58;;;;;;;;;;;11.80;99.90;;;;;;5009145;28;20120;-75
2024/03/11 13:24:24;;;;;;;;;;;11.50;99.90;;;;;;5009482;28;19990;-75
2024/03/11 13:26:50;;;;;;;;;;;11.50;99.90;;;;;;5011653;28;19994;-75
2024/03/11 13:29:16;;;;;;;;;;;11.60;99.90;;;;;;4997041;28;19994;-75
2024/03/11 13:31:43;;;;;;;;;;;11.50;99.90;;;;;;5005153;28;20002;-74
2024/03/11 13:34:09;;;;;;;;;;;12.00;99.90;;;;;;5007767;28;20082;-76
2024/03/11 13:36:34;;;;;;;;;;;12.20;99.90;;;;;;5005304;28;20071;-75
2024/03/11 13:39:00;;;;;;;;;;;11.40;99.90;;;;;;5008461;28;19993;-76
2024/03/11 13:41:27;;;;;;;;;;;11.10;99.90;;;;;;5005088;28;19986;-75
2024/03/11 13:43:53;;;;;;;;;;;11.20;99.90;;;;;;5008529;28;20442;-75
2024/03/11 13:46:20;;;;;;;;;;;11.50;99.90;;;;;;5005379;28;19991;-76
2024/03/11 13:48:46;;;;;;;;;;;11.50;99.90;;;;;;5008170;28;20053;-75
2024/03/11 13:51:13;;;;;;;;;;;11.10;99.90;;;;;;5004740;28;19994;-75
2024/03/11 13:53:38;;;;;;;;;;;10.80;99.90;;;;;;5008281;28;20084;-76
2024/03/11 13:56:05;;;;;;;;;;;10.80;99.90;;;;;;5008126;28;20128;-76
2024/03/11 13:58:31;;;;;;;;;;;10.80;99.90;;;;;;5004235;28;20002;-75
2024/03/11 14:00:57;;;;;;;;;;;11.00;99.90;;;;;;5004333;28;19990;-76
2024/03/11 14:03:22;;;;;;;;;;;10.70;99.90;;;;;;5004876;28;19991;-75
2024/03/11 14:05:49;;;;;;;;;;;10.80;99.90;;;;;;5010273;28;20080;-76
2024/03/11 14:08:17;;;;;;;;;;;10.90;99.90;;;;;;5008197;28;19990;-75
2024/03/11 14:10:48;;;;;;;;;;;10.60;99.90;;;;;;5005880;28;20833;-75
2024/03/11 14:13:14;;;;;;;;;;;10.70;99.90;;;;;;5004789;28;20077;-76
2024/03/11 14:15:42;;;;;;;;;;;10.60;99.90;;;;;;5007975;28;20026;-75
2024/03/11 14:18:08;;;;;;;;;;;10.80;99.90;;;;;;5006353;28;20972;-75
2024/03/11 14:20:35;;;;;;;;;;;10.80;99.90;;;;;;5007247;28;19994;-75
2024/03/11 14:23:01;;;;;;;;;;;10.80;99.90;;;;;;5004501;28;19987;-75
2024/03/11 14:25:30;;;;;;;;;;;10.60;99.90;;;;;;5007279;28;20001;-76
2024/03/11 14:27:56;;;;;;;;;;;10.50;99.90;;;;;;5004131;28;19986;-75